Time;durP1;ratioP1;P1;durP2;ratioP2;P2;SDS_P1;SDS_P2;PMS_P1;PMS_P2;Temp;Humidity;BMP_temperature;BMP_pressure;BME280_temperature;BME280_humidity;BME280_pressure;Samples;Min_cycle;Max_cycle;Signal;HPM_P1;HPM_P2
2022/07/11 00:02:11;;;;;;;3.90;1.77;;;21.60;62.00;;;;;;10410224;28;20037;-59
2022/07/11 00:07:13;;;;;;;2.30;1.40;;;21.60;62.00;;;;;;10388200;28;20030;-59
2022/07/11 00:12:14;;;;;;;3.28;1.60;;;21.70;62.10;;;;;;10370929;28;20034;-59
2022/07/11 00:17:14;;;;;;;2.13;1.23;;;21.60;62.10;;;;;;10396075;28;20033;-59
2022/07/11 00:22:16;;;;;;;2.15;1.50;;;21.60;62.10;;;;;;10387960;28;20416;-58
2022/07/11 00:27:16;;;;;;;1.92;1.30;;;21.60;62.10;;;;;;10376630;28;20402;-59
2022/07/11 00:32:17;;;;;;;3.20;1.75;;;21.60;62.10;;;;;;10390125;28;20021;-60
2022/07/11 00:37:18;;;;;;;2.47;1.27;;;21.60;62.10;;;;;;10414868;28;20054;-59
2022/07/11 00:42:19;;;;;;;1.90;1.63;;;21.60;62.10;;;;;;10400421;28;20050;-59
2022/07/11 00:47:19;;;;;;;1.67;1.30;;;21.60;62.10;;;;;;10396315;28;20091;-59
2022/07/11 00:52:20;;;;;;;2.13;1.27;;;21.60;62.10;;;;;;10391715;28;20465;-60
2022/07/11 00:57:22;;;;;;;1.50;1.02;;;21.60;62.10;;;;;;10404402;28;20039;-60
2022/07/11 01:02:23;;;;;;;2.03;1.23;;;21.60;62.10;;;;;;10388385;28;20048;-60
2022/07/11 01:07:24;;;;;;;3.03;1.42;;;21.60;62.20;;;;;;10371481;28;20047;-59
2022/07/11 01:12:26;;;;;;;2.00;1.40;;;21.60;62.20;;;;;;10372503;28;20385;-59
2022/07/11 01:17:28;;;;;;;2.75;1.73;;;21.60;62.30;;;;;;10410192;28;20033;-59
2022/07/11 01:22:35;;;;;;;3.15;1.67;;;21.60;62.30;;;;;;10400437;28;20044;-59
2022/07/11 01:27:36;;;;;;;2.22;1.58;;;21.60;62.30;;;;;;10383718;28;20069;-59
2022/07/11 01:32:37;;;;;;;1.65;1.02;;;21.60;62.30;;;;;;10358160;28;20105;-59
2022/07/11 01:37:37;;;;;;;2.25;1.60;;;21.60;62.30;;;;;;10393960;28;20095;-60
2022/07/11 01:42:38;;;;;;;2.33;1.27;;;21.60;62.30;;;;;;10388661;28;20025;-59
2022/07/11 01:47:40;;;;;;;1.70;1.10;;;21.60;62.30;;;;;;10395681;28;20038;-59
2022/07/11 01:52:41;;;;;;;1.58;1.13;;;21.60;62.40;;;;;;10401344;28;20048;-60
2022/07/11 01:57:42;;;;;;;2.35;1.60;;;21.60;62.40;;;;;;10382654;28;20529;-60
2022/07/11 02:02:42;;;;;;;1.50;1.00;;;21.60;62.40;;;;;;10385053;28;20464;-59
2022/07/11 02:13:03;;;;;;;2.13;1.27;;;21.60;62.30;;;;;;10378027;28;20109;-59
2022/07/11 02:18:04;;;;;;;1.80;1.17;;;21.60;62.40;;;;;;10396624;28;20022;-59
2022/07/11 02:23:05;;;;;;;2.78;1.02;;;21.60;62.40;;;;;;10410849;28;20037;-59
2022/07/11 02:28:09;;;;;;;2.42;1.23;;;21.60;62.40;;;;;;10401309;28;20036;-60
2022/07/11 02:33:13;;;;;;;3.00;1.45;;;21.60;62.50;;;;;;10388919;28;20112;-60
2022/07/11 02:38:15;;;;;;;2.33;1.10;;;21.60;62.50;;;;;;10396036;28;20049;-59
2022/07/11 02:43:15;;;;;;;1.63;1.25;;;21.60;62.60;;;;;;10384348;28;20064;-59
2022/07/11 02:48:16;;;;;;;2.15;1.20;;;21.60;62.60;;;;;;10400439;28;20148;-59
2022/07/11 02:53:17;;;;;;;2.33;1.27;;;21.60;62.60;;;;;;10377184;28;20021;-59
2022/07/11 02:58:18;;;;;;;2.33;1.40;;;21.60;62.60;;;;;;10369003;28;20451;-59
2022/07/11 03:03:19;;;;;;;1.67;1.23;;;21.60;62.60;;;;;;10367414;28;20128;-60
2022/07/11 03:08:19;;;;;;;1.83;1.23;;;21.50;62.60;;;;;;10383630;28;20026;-59
2022/07/11 03:13:20;;;;;;;1.35;1.23;;;21.50;62.60;;;;;;10378236;28;20080;-59
2022/07/11 03:18:21;;;;;;;2.70;1.05;;;21.50;62.60;;;;;;10367450;28;20374;-60
2022/07/11 03:23:21;;;;;;;1.52;1.20;;;21.60;62.60;;;;;;10401351;28;20506;-58
2022/07/11 03:28:22;;;;;;;1.40;0.80;;;21.50;62.60;;;;;;10395260;28;20040;-60
2022/07/11 03:33:23;;;;;;;1.55;1.10;;;21.60;62.60;;;;;;10380021;28;20619;-59
2022/07/11 03:38:24;;;;;;;3.35;1.08;;;21.60;62.70;;;;;;10380252;28;20061;-60
2022/07/11 03:43:24;;;;;;;2.17;1.55;;;21.60;62.70;;;;;;10385260;28;20038;-59
2022/07/11 03:48:25;;;;;;;1.35;1.05;;;21.50;62.70;;;;;;10398286;28;20017;-59
2022/07/11 03:53:27;;;;;;;1.60;1.10;;;21.50;62.70;;;;;;10393960;28;20043;-60
2022/07/11 03:58:27;;;;;;;1.88;1.00;;;21.50;62.70;;;;;;10406830;28;20028;-59
2022/07/11 04:03:29;;;;;;;2.10;1.10;;;21.50;62.80;;;;;;10378785;28;20034;-58
2022/07/11 04:08:29;;;;;;;4.10;1.10;;;21.50;62.80;;;;;;10379499;28;20026;-59
2022/07/11 04:13:30;;;;;;;2.42;1.10;;;21.50;62.80;;;;;;10367061;28;20101;-59
2022/07/11 04:18:31;;;;;;;1.67;1.08;;;21.50;62.90;;;;;;10397950;28;20392;-59
2022/07/11 04:23:32;;;;;;;1.70;1.15;;;21.50;62.90;;;;;;10406906;28;20090;-59
2022/07/11 04:28:32;;;;;;;1.25;0.93;;;21.50;62.90;;;;;;10394755;28;20108;-59
2022/07/11 04:33:33;;;;;;;1.63;0.95;;;21.50;62.90;;;;;;10400012;28;20029;-59
2022/07/11 04:38:34;;;;;;;2.55;1.05;;;21.50;62.90;;;;;;10378024;28;20421;-60
2022/07/11 04:43:36;;;;;;;2.33;0.70;;;21.50;62.80;;;;;;10388464;28;20176;-59
2022/07/11 04:48:38;;;;;;;2.10;1.00;;;21.50;62.90;;;;;;10398941;28;20029;-59
2022/07/11 04:53:38;;;;;;;1.23;1.00;;;21.50;62.90;;;;;;10387373;28;20033;-59
2022/07/11 04:58:39;;;;;;;2.03;1.30;;;21.50;63.00;;;;;;10410336;28;20041;-59
2022/07/11 05:03:40;;;;;;;8.48;2.55;;;21.50;63.00;;;;;;10398361;28;20026;-60
2022/07/11 05:08:41;;;;;;;7.82;2.25;;;21.50;63.70;;;;;;10370906;28;20041;-59
2022/07/11 05:13:41;;;;;;;5.43;1.70;;;21.50;63.90;;;;;;10400772;28;20580;-60
2022/07/11 05:18:42;;;;;;;11.30;3.22;;;21.60;64.10;;;;;;10381502;28;20048;-60
2022/07/11 05:23:43;;;;;;;8.13;1.75;;;21.60;64.70;;;;;;10372744;28;20030;-62
2022/07/11 05:28:43;;;;;;;6.80;1.50;;;21.60;65.10;;;;;;10384465;28;20033;-60
2022/07/11 05:33:44;;;;;;;9.13;1.92;;;21.70;64.80;;;;;;10387204;28;20065;-60
2022/07/11 05:38:45;;;;;;;9.60;2.17;;;21.70;65.30;;;;;;10384982;28;20056;-61
2022/07/11 05:43:46;;;;;;;5.97;1.75;;;21.70;66.00;;;;;;10395863;28;20029;-60
2022/07/11 05:48:46;;;;;;;7.85;2.63;;;21.70;66.10;;;;;;10409578;28;20116;-62
2022/07/11 05:53:47;;;;;;;7.88;2.20;;;21.70;66.10;;;;;;10410414;28;20117;-59
2022/07/11 05:58:48;;;;;;;13.20;2.25;;;21.70;65.70;;;;;;10393517;28;20626;-62
2022/07/11 06:03:49;;;;;;;21.38;2.90;;;21.70;65.60;;;;;;10391659;28;20022;-58
2022/07/11 06:08:50;;;;;;;8.00;1.98;;;21.70;65.90;;;;;;10375895;28;20029;-60
2022/07/11 06:13:51;;;;;;;14.88;3.10;;;21.60;65.60;;;;;;10378429;28;20052;-61
2022/07/11 06:18:52;;;;;;;7.28;2.15;;;21.60;65.90;;;;;;10381570;28;20037;-58
2022/07/11 06:23:54;;;;;;;15.70;2.42;;;21.60;66.50;;;;;;10365763;28;20065;-59
2022/07/11 06:28:55;;;;;;;6.80;1.40;;;21.60;65.60;;;;;;10367313;28;20034;-58
2022/07/11 06:33:57;;;;;;;6.97;1.67;;;21.60;65.50;;;;;;10366229;28;20029;-57
2022/07/11 06:38:57;;;;;;;9.93;2.20;;;21.60;65.50;;;;;;10366951;28;20408;-58
2022/07/11 06:43:58;;;;;;;10.90;1.85;;;21.60;65.40;;;;;;10389827;28;20040;-59
2022/07/11 06:48:59;;;;;;;5.13;2.22;;;21.60;65.40;;;;;;10385313;28;20105;-59
2022/07/11 06:53:59;;;;;;;7.53;2.10;;;21.60;65.40;;;;;;10366587;28;20052;-60
2022/07/11 06:59:01;;;;;;;8.60;2.00;;;21.60;64.90;;;;;;10373880;28;20104;-58
2022/07/11 07:04:01;;;;;;;11.27;2.17;;;21.60;66.30;;;;;;10372774;28;20417;-58
2022/07/11 07:09:03;;;;;;;11.30;2.22;;;21.60;66.80;;;;;;10365776;28;20109;-58
2022/07/11 07:14:03;;;;;;;6.75;2.22;;;21.60;66.80;;;;;;10365725;28;20022;-58
2022/07/11 07:19:04;;;;;;;4.80;2.03;;;21.60;67.00;;;;;;10365472;28;20034;-57
2022/07/11 07:24:05;;;;;;;6.57;1.75;;;21.60;67.00;;;;;;10371612;28;20866;-58
2022/07/11 07:29:06;;;;;;;6.00;2.08;;;21.60;67.20;;;;;;10362602;28;20030;-61
2022/07/11 07:34:08;;;;;;;6.50;1.52;;;21.60;67.20;;;;;;10366894;28;20112;-58
2022/07/11 07:39:09;;;;;;;7.15;1.75;;;21.60;67.00;;;;;;10392613;28;20056;-59
2022/07/11 07:44:10;;;;;;;5.18;1.70;;;21.60;67.10;;;;;;10372879;28;20052;-57
2022/07/11 07:49:11;;;;;;;4.10;1.50;;;21.60;66.90;;;;;;10381385;28;20070;-58
2022/07/11 07:54:13;;;;;;;3.60;1.63;;;21.60;66.90;;;;;;10372861;28;20540;-58
2022/07/11 07:59:14;;;;;;;8.35;1.80;;;21.60;66.80;;;;;;10382987;28;20033;-63
2022/07/11 08:04:14;;;;;;;9.73;2.55;;;21.60;66.50;;;;;;10383037;28;20025;-58
2022/07/11 08:09:15;;;;;;;6.85;1.98;;;21.60;66.40;;;;;;10400222;28;20032;-58
2022/07/11 08:14:16;;;;;;;8.40;1.98;;;21.60;66.60;;;;;;10392572;28;20052;-57
2022/07/11 08:19:17;;;;;;;5.45;1.67;;;21.60;66.60;;;;;;10375127;28;20047;-57
2022/07/11 08:24:17;;;;;;;5.57;1.80;;;21.60;66.00;;;;;;10378960;28;20051;-58
2022/07/11 08:29:18;;;;;;;9.32;1.90;;;21.60;66.50;;;;;;10394527;28;20034;-59
2022/07/11 08:34:20;;;;;;;4.82;1.88;;;21.60;66.70;;;;;;10396796;28;20104;-58
2022/07/11 08:39:21;;;;;;;5.93;1.48;;;21.60;66.80;;;;;;10386467;28;20049;-58
2022/07/11 08:44:22;;;;;;;4.30;1.30;;;21.60;66.70;;;;;;10412567;28;20029;-59
2022/07/11 08:49:23;;;;;;;4.53;1.27;;;21.60;66.70;;;;;;10399921;28;20113;-58
2022/07/11 08:54:24;;;;;;;7.18;1.63;;;21.60;66.70;;;;;;10376537;28;20449;-58
2022/07/11 08:59:27;;;;;;;4.95;1.40;;;21.60;67.20;;;;;;10372962;28;20036;-58
2022/07/11 09:04:29;;;;;;;7.53;1.80;;;21.60;67.00;;;;;;10367500;28;20454;-58
2022/07/11 09:09:30;;;;;;;7.22;1.67;;;21.60;67.30;;;;;;10370819;28;20041;-57
2022/07/11 09:14:32;;;;;;;7.38;2.08;;;21.60;67.00;;;;;;10370026;28;20449;-57
2022/07/11 09:19:38;;;;;;;11.70;2.20;;;21.60;67.10;;;;;;10369579;28;20033;-58
2022/07/11 09:25:21;;;;;;;3.22;1.80;;;21.60;67.00;;;;;;10383289;28;20458;-58
2022/07/11 09:30:27;;;;;;;4.60;1.10;;;21.60;67.10;;;;;;10370457;28;20083;-58
2022/07/11 09:35:35;;;;;;;5.78;1.27;;;21.60;67.00;;;;;;10368894;28;20034;-58
2022/07/11 09:40:37;;;;;;;6.50;1.50;;;21.60;66.60;;;;;;10389965;28;20585;-58
2022/07/11 09:45:39;;;;;;;12.18;2.55;;;21.60;67.00;;;;;;10383502;28;20046;-58
2022/07/11 09:50:54;;;;;;;4.70;1.20;;;21.60;67.00;;;;;;10403594;28;20184;-58
2022/07/11 09:55:54;;;;;;;8.52;1.92;;;21.50;67.30;;;;;;10390278;28;20034;-58
2022/07/11 10:00:56;;;;;;;5.78;2.47;;;21.60;67.30;;;;;;10390451;28;20436;-58
2022/07/11 10:05:56;;;;;;;5.68;1.30;;;21.60;67.30;;;;;;10390551;28;20041;-58
2022/07/11 10:10:57;;;;;;;5.60;1.42;;;21.60;67.30;;;;;;10368905;28;20101;-58
2022/07/11 10:16:00;;;;;;;3.90;1.58;;;21.60;67.30;;;;;;10369852;28;20088;-58
2022/07/11 10:21:03;;;;;;;6.07;1.20;;;21.60;67.20;;;;;;10408225;28;20056;-58
2022/07/11 10:26:26;;;;;;;6.47;1.30;;;21.60;67.10;;;;;;10382856;28;20026;-58
2022/07/11 10:31:30;;;;;;;3.90;0.90;;;21.60;67.00;;;;;;10373097;28;20030;-58
2022/07/11 10:36:38;;;;;;;4.55;1.05;;;21.60;67.20;;;;;;10380709;28;20025;-58
2022/07/11 10:41:39;;;;;;;3.60;1.63;;;21.60;66.80;;;;;;10396458;28;20525;-59
2022/07/11 10:46:40;;;;;;;3.83;1.00;;;21.60;66.90;;;;;;10384986;28;20072;-58
2022/07/11 10:51:44;;;;;;;3.50;0.90;;;21.60;67.00;;;;;;10406819;28;20072;-58
2022/07/11 10:57:11;;;;;;;2.47;0.88;;;21.60;67.00;;;;;;10386739;28;20076;-58
2022/07/11 11:02:12;;;;;;;3.05;0.90;;;21.60;67.10;;;;;;10386110;28;20064;-58
2022/07/11 11:07:36;;;;;;;4.55;1.20;;;21.60;67.20;;;;;;10386470;28;20029;-57
2022/07/11 11:13:04;;;;;;;4.88;1.30;;;21.60;67.10;;;;;;10382414;28;20073;-58
2022/07/11 11:18:23;;;;;;;8.43;1.20;;;21.60;67.20;;;;;;10398811;28;20029;-58
2022/07/11 11:23:25;;;;;;;3.13;1.70;;;21.60;67.20;;;;;;10408601;28;20369;-58
2022/07/11 11:28:26;;;;;;;4.95;1.30;;;21.60;67.90;;;;;;10416391;28;20041;-60
2022/07/11 11:33:31;;;;;;;15.85;2.17;;;21.70;68.30;;;;;;10393277;28;20037;-61
2022/07/11 11:38:37;;;;;;;5.40;1.45;;;21.70;68.50;;;;;;10386574;28;20113;-60
2022/07/11 11:43:37;;;;;;;7.57;1.45;;;21.70;69.10;;;;;;10373600;28;20030;-59
2022/07/11 11:48:44;;;;;;;5.88;1.50;;;21.70;69.40;;;;;;10399214;28;20029;-58
2022/07/11 11:53:52;;;;;;;4.60;1.10;;;21.70;68.80;;;;;;10374623;28;20544;-58
2022/07/11 11:58:58;;;;;;;3.28;0.80;;;21.70;68.80;;;;;;10372566;28;20553;-58
2022/07/11 12:04:02;;;;;;;3.15;0.77;;;21.70;69.00;;;;;;10373713;28;20026;-59
2022/07/11 12:09:09;;;;;;;3.60;1.17;;;21.70;68.70;;;;;;10372570;28;20026;-58
2022/07/11 12:14:13;;;;;;;4.18;1.45;;;21.70;68.50;;;;;;10384637;28;20369;-61
2022/07/11 12:19:18;;;;;;;5.70;1.38;;;21.70;69.10;;;;;;10381150;28;20025;-60
2022/07/11 12:24:24;;;;;;;5.28;1.10;;;21.80;68.90;;;;;;10380260;28;20068;-59
2022/07/11 12:29:27;;;;;;;24.52;2.70;;;21.80;70.10;;;;;;10399264;28;20087;-59
2022/07/11 12:34:34;;;;;;;16.73;2.50;;;21.80;69.20;;;;;;10414259;28;20025;-58
2022/07/11 12:39:40;;;;;;;20.27;2.63;;;21.80;69.60;;;;;;10392234;28;20136;-59
2022/07/11 12:44:59;;;;;;;14.32;2.28;;;21.90;69.80;;;;;;10371228;28;20440;-59
2022/07/11 12:50:14;;;;;;;17.70;2.13;;;21.90;69.90;;;;;;10390330;28;20117;-59
2022/07/11 12:55:26;;;;;;;23.42;3.47;;;21.90;69.80;;;;;;10364876;28;20386;-61
2022/07/11 13:00:27;;;;;;;11.50;2.22;;;21.80;70.00;;;;;;10397777;28;20116;-59
2022/07/11 13:05:28;;;;;;;20.67;2.30;;;21.90;70.40;;;;;;10365263;28;20511;-60
2022/07/11 13:15:50;;;;;;;7.60;1.70;;;21.90;70.40;;;;;;10386627;28;20112;-60
2022/07/11 13:20:51;;;;;;;12.73;1.40;;;21.90;70.40;;;;;;10389050;28;20091;-59
2022/07/11 13:25:52;;;;;;;8.85;1.95;;;22.00;70.40;;;;;;10383145;28;20034;-59
2022/07/11 13:30:53;;;;;;;18.58;1.65;;;22.00;70.20;;;;;;10397796;28;20405;-59
2022/07/11 13:35:55;;;;;;;8.98;1.25;;;22.00;69.90;;;;;;10377836;28;20049;-59
2022/07/11 13:40:58;;;;;;;7.90;1.10;;;22.00;69.70;;;;;;10371397;28;20053;-60
2022/07/11 13:45:59;;;;;;;5.38;0.75;;;21.90;69.50;;;;;;10383568;28;20041;-59
2022/07/11 13:50:59;;;;;;;4.35;0.68;;;21.90;69.40;;;;;;10381368;28;20112;-60
2022/07/11 13:56:00;;;;;;;5.22;1.00;;;21.80;69.30;;;;;;10381850;28;20105;-59
2022/07/11 14:01:01;;;;;;;2.60;0.73;;;21.80;69.20;;;;;;10381428;28;20033;-59
2022/07/11 14:06:02;;;;;;;6.03;1.00;;;21.80;69.00;;;;;;10376028;28;20052;-59
2022/07/11 14:11:03;;;;;;;2.35;0.80;;;21.90;69.00;;;;;;10377768;28;20088;-59
2022/07/11 14:16:06;;;;;;;3.08;0.80;;;21.90;68.90;;;;;;10381886;28;20034;-59
2022/07/11 14:21:07;;;;;;;2.45;0.52;;;21.90;68.80;;;;;;10382626;28;20168;-59
2022/07/11 14:26:08;;;;;;;2.53;0.55;;;21.90;69.00;;;;;;10381970;28;20030;-59
2022/07/11 14:31:09;;;;;;;2.47;0.50;;;21.90;68.70;;;;;;10381769;28;20075;-58
2022/07/11 14:36:09;;;;;;;2.33;0.40;;;21.90;68.60;;;;;;10371224;28;20042;-57
2022/07/11 14:41:15;;;;;;;3.60;1.00;;;21.90;68.40;;;;;;10369292;28;20076;-59
2022/07/11 14:46:16;;;;;;;6.35;0.85;;;21.90;68.80;;;;;;10352340;28;20088;-59
2022/07/11 14:51:17;;;;;;;5.72;0.88;;;22.00;69.00;;;;;;10386029;28;20542;-59
2022/07/11 14:56:18;;;;;;;4.20;0.50;;;22.00;68.60;;;;;;10402390;28;20033;-59
2022/07/11 15:01:18;;;;;;;6.53;1.05;;;22.00;68.10;;;;;;10406686;28;20391;-59
2022/07/11 15:06:21;;;;;;;14.43;1.75;;;22.00;68.20;;;;;;10380289;28;20420;-59
2022/07/11 15:16:26;;;;;;;11.00;1.92;;;21.90;68.30;;;;;;10393685;28;20041;-58
2022/07/11 15:21:27;;;;;;;9.93;1.13;;;21.90;68.40;;;;;;10393100;28;20056;-59
2022/07/11 15:26:28;;;;;;;4.13;0.85;;;21.90;68.00;;;;;;10405919;28;20033;-59
2022/07/11 15:31:29;;;;;;;6.85;1.23;;;21.90;67.80;;;;;;10392986;28;20033;-59
2022/07/11 15:36:29;;;;;;;7.03;1.10;;;21.90;67.80;;;;;;10388833;28;20037;-60
2022/07/11 15:41:30;;;;;;;3.60;0.80;;;22.00;67.70;;;;;;10361207;28;20477;-60
2022/07/11 15:46:32;;;;;;;4.45;0.95;;;21.90;67.60;;;;;;10381136;28;20697;-59
2022/07/11 15:51:34;;;;;;;6.45;0.80;;;22.00;67.60;;;;;;10393171;28;20030;-59
2022/07/11 15:56:36;;;;;;;5.63;1.48;;;22.00;67.60;;;;;;10391029;28;20109;-60
2022/07/11 16:01:38;;;;;;;13.60;8.70;;;22.00;67.60;;;;;;10384517;28;20041;-55
2022/07/11 16:06:40;;;;;;;8.68;2.75;;;22.00;69.80;;;;;;10382194;28;20033;-56
2022/07/11 16:11:40;;;;;;;11.70;1.77;;;22.10;68.10;;;;;;10378806;28;20044;-56
2022/07/11 16:16:42;;;;;;;16.80;2.42;;;22.00;67.70;;;;;;10389993;28;20037;-56
2022/07/11 16:21:43;;;;;;;14.05;2.63;;;22.10;67.50;;;;;;10410998;28;20212;-54
2022/07/11 16:26:44;;;;;;;17.40;2.85;;;22.20;67.20;;;;;;10385035;28;20030;-53
2022/07/11 16:31:45;;;;;;;20.73;11.60;;;22.20;67.30;;;;;;10385523;28;20021;-55
2022/07/11 16:36:46;;;;;;;24.23;10.55;;;22.20;69.00;;;;;;10398066;28;20041;-54
2022/07/11 16:47:05;;;;;;;10.90;4.88;;;22.20;67.30;;;;;;10410565;28;20033;-56
2022/07/11 16:52:07;;;;;;;15.40;4.68;;;22.20;67.10;;;;;;10388755;28;20125;-56
2022/07/11 16:57:07;;;;;;;12.18;4.82;;;22.10;67.00;;;;;;10370501;28;20041;-56
2022/07/11 17:02:08;;;;;;;11.45;5.18;;;22.10;67.00;;;;;;10386908;28;20044;-55
2022/07/11 17:07:09;;;;;;;8.93;4.05;;;22.20;66.90;;;;;;10390278;28;20040;-55
2022/07/11 17:12:11;;;;;;;8.30;3.95;;;22.20;66.90;;;;;;10371770;28;20545;-57
2022/07/11 17:17:12;;;;;;;8.10;3.58;;;22.20;67.00;;;;;;10385802;28;20526;-56
2022/07/11 17:22:12;;;;;;;8.88;3.72;;;22.20;66.80;;;;;;10369725;28;20029;-57
2022/07/11 17:27:13;;;;;;;11.77;3.33;;;22.10;66.70;;;;;;10387942;28;20063;-55
2022/07/11 17:32:14;;;;;;;9.82;3.60;;;22.10;66.90;;;;;;10372531;28;20522;-55
2022/07/11 17:37:15;;;;;;;11.05;3.20;;;22.10;66.80;;;;;;10379303;28;20098;-56
2022/07/11 17:42:16;;;;;;;8.25;3.47;;;22.20;67.20;;;;;;10394264;28;20427;-56
2022/07/11 17:47:16;;;;;;;11.60;2.85;;;22.20;67.10;;;;;;10381261;28;20376;-56
2022/07/11 17:52:17;;;;;;;5.57;2.80;;;22.30;67.10;;;;;;10378916;28;20035;-55
2022/07/11 17:57:18;;;;;;;5.97;2.88;;;22.20;67.10;;;;;;10383473;28;20080;-55
2022/07/11 18:02:19;;;;;;;6.50;2.17;;;22.20;66.90;;;;;;10379519;28;20129;-57
2022/07/11 18:07:22;;;;;;;6.57;2.15;;;22.20;66.90;;;;;;10384722;28;20642;-55
2022/07/11 18:12:24;;;;;;;5.95;1.73;;;22.20;67.00;;;;;;10387682;28;20041;-57
2022/07/11 18:17:26;;;;;;;4.53;1.55;;;22.10;66.90;;;;;;10409760;28;20030;-55
2022/07/11 18:22:27;;;;;;;3.42;1.50;;;22.20;66.90;;;;;;10379717;28;20029;-56
2022/07/11 18:27:28;;;;;;;2.25;1.38;;;22.10;66.90;;;;;;10382667;28;20066;-55
2022/07/11 18:32:29;;;;;;;3.28;1.30;;;22.10;66.90;;;;;;10376351;28;20030;-56
2022/07/11 18:37:30;;;;;;;4.10;1.55;;;22.10;67.00;;;;;;10379666;28;20049;-55
2022/07/11 18:42:30;;;;;;;2.13;1.00;;;22.10;67.20;;;;;;10384627;28;20041;-58
2022/07/11 18:47:31;;;;;;;1.55;0.70;;;22.10;67.20;;;;;;10391187;28;20057;-57
2022/07/11 18:52:32;;;;;;;1.90;0.80;;;22.10;67.40;;;;;;10378315;28;20100;-57
2022/07/11 18:57:34;;;;;;;1.10;0.65;;;22.10;67.40;;;;;;10380269;28;20098;-58
2022/07/11 19:02:37;;;;;;;1.40;1.00;;;22.10;67.50;;;;;;10380178;28;20456;-57
2022/07/11 19:07:37;;;;;;;1.80;1.15;;;22.10;67.40;;;;;;10371365;28;20038;-57
2022/07/11 19:12:38;;;;;;;1.08;0.70;;;22.10;67.30;;;;;;10384146;28;20036;-57
2022/07/11 19:17:39;;;;;;;1.63;0.60;;;22.20;68.00;;;;;;10368860;28;20037;-57
2022/07/11 19:22:40;;;;;;;4.43;0.63;;;22.10;67.30;;;;;;10381615;28;20036;-57
2022/07/11 19:27:40;;;;;;;1.73;0.77;;;22.10;67.20;;;;;;10393298;28;20025;-57
2022/07/11 19:32:41;;;;;;;4.93;0.80;;;22.10;67.30;;;;;;10374938;28;20060;-55
2022/07/11 19:37:42;;;;;;;3.85;0.90;;;22.10;67.30;;;;;;10379951;28;20045;-56
2022/07/11 19:42:42;;;;;;;3.15;0.60;;;22.10;67.40;;;;;;10384385;28;20106;-55
2022/07/11 19:47:43;;;;;;;0.93;0.73;;;22.20;67.40;;;;;;10372375;28;20029;-56
2022/07/11 19:52:45;;;;;;;2.20;0.82;;;22.10;67.20;;;;;;10417561;28;20112;-57
2022/07/11 19:57:45;;;;;;;2.78;0.73;;;22.10;67.50;;;;;;10386339;28;20028;-54
2022/07/11 20:02:49;;;;;;;3.90;0.73;;;22.10;67.30;;;;;;10394614;28;20033;-57
2022/07/11 20:07:50;;;;;;;1.58;0.60;;;22.10;67.30;;;;;;10370528;28;20034;-55
2022/07/11 20:12:51;;;;;;;3.55;1.27;;;22.10;67.20;;;;;;10374015;28;20033;-55
2022/07/11 20:17:52;;;;;;;1.83;0.80;;;22.10;67.20;;;;;;10396721;28;20042;-56
2022/07/11 20:22:55;;;;;;;2.28;0.50;;;22.10;67.10;;;;;;10392839;28;20099;-55
2022/07/11 20:27:56;;;;;;;1.83;0.82;;;22.10;67.20;;;;;;10398961;28;20481;-55
2022/07/11 20:32:57;;;;;;;1.70;0.60;;;22.10;67.20;;;;;;10393751;28;20149;-56
2022/07/11 20:37:57;;;;;;;1.85;0.98;;;22.10;67.10;;;;;;10398949;28;20056;-55
2022/07/11 20:42:58;;;;;;;2.65;0.73;;;22.10;67.10;;;;;;10398728;28;20040;-56
2022/07/11 20:47:59;;;;;;;4.95;0.90;;;22.10;67.00;;;;;;10381320;28;20124;-55
2022/07/11 20:53:00;;;;;;;1.98;0.50;;;22.10;67.00;;;;;;10408636;28;20017;-56
2022/07/11 20:58:01;;;;;;;1.50;0.60;;;22.00;66.90;;;;;;10399040;28;20443;-56
2022/07/11 21:03:02;;;;;;;2.13;0.75;;;22.00;67.00;;;;;;10386605;28;20101;-54
2022/07/11 21:08:03;;;;;;;0.80;0.43;;;22.00;67.00;;;;;;10382375;28;20033;-55
2022/07/11 21:13:03;;;;;;;1.65;0.60;;;22.00;67.00;;;;;;10373165;28;20400;-55
2022/07/11 21:18:04;;;;;;;1.48;0.63;;;22.00;67.00;;;;;;10384436;28;20029;-54
2022/07/11 21:23:05;;;;;;;2.60;0.80;;;22.00;67.00;;;;;;10403015;28;20052;-56
2022/07/11 21:28:05;;;;;;;1.65;0.70;;;22.00;66.90;;;;;;10398083;28;20034;-56
2022/07/11 21:33:07;;;;;;;1.15;0.80;;;22.00;66.80;;;;;;10399329;28;20022;-54
2022/07/11 21:38:07;;;;;;;0.75;0.50;;;22.00;67.20;;;;;;10371298;28;20057;-56
2022/07/11 21:43:08;;;;;;;1.52;0.50;;;22.00;66.60;;;;;;10379601;28;20026;-57
2022/07/11 21:48:09;;;;;;;1.13;0.60;;;22.00;66.60;;;;;;10393757;28;20042;-54
2022/07/11 21:53:10;;;;;;;1.20;0.95;;;22.00;66.70;;;;;;10385816;28;20112;-55
2022/07/11 21:58:10;;;;;;;2.28;0.63;;;22.00;66.70;;;;;;10381856;28;20032;-55
2022/07/11 22:03:11;;;;;;;1.10;0.60;;;22.00;66.70;;;;;;10373206;28;20116;-55
2022/07/11 22:08:12;;;;;;;1.85;0.75;;;22.00;66.60;;;;;;10395503;28;20037;-55
2022/07/11 22:13:12;;;;;;;0.88;0.70;;;22.00;66.60;;;;;;10384726;28;20033;-54
2022/07/11 22:18:13;;;;;;;0.52;0.40;;;22.00;66.60;;;;;;10383933;28;20140;-55
2022/07/11 22:23:14;;;;;;;1.48;0.82;;;22.00;66.50;;;;;;10397432;28;20034;-56
2022/07/11 22:28:15;;;;;;;0.75;0.40;;;22.00;66.30;;;;;;10373340;28;20045;-55
2022/07/11 22:33:15;;;;;;;1.05;0.80;;;22.00;66.20;;;;;;10376978;28;20116;-55
2022/07/11 22:38:16;;;;;;;0.75;0.50;;;22.00;66.20;;;;;;10367702;28;20056;-55
2022/07/11 22:43:20;;;;;;;1.17;0.60;;;22.00;66.10;;;;;;10379825;28;20033;-55
2022/07/11 22:48:20;;;;;;;0.82;0.60;;;22.00;66.10;;;;;;10382424;28;20033;-56
2022/07/11 22:53:21;;;;;;;0.75;0.50;;;21.90;65.90;;;;;;10383944;28;20120;-56
2022/07/11 22:58:22;;;;;;;0.75;0.60;;;22.00;65.80;;;;;;10368369;28;20042;-55
2022/07/11 23:03:23;;;;;;;1.38;0.70;;;21.90;65.80;;;;;;10392600;28;20543;-56
2022/07/11 23:08:23;;;;;;;1.08;0.95;;;21.90;65.80;;;;;;10367198;28;20121;-55
2022/07/11 23:13:24;;;;;;;2.38;0.50;;;21.90;65.60;;;;;;10392974;28;20113;-56
2022/07/11 23:18:25;;;;;;;0.80;0.60;;;21.90;65.50;;;;;;10385581;28;20029;-54
2022/07/11 23:23:25;;;;;;;2.20;0.60;;;21.90;65.40;;;;;;10375296;28;20163;-55
2022/07/11 23:28:26;;;;;;;0.77;0.50;;;21.90;65.40;;;;;;10392994;28;20552;-56
2022/07/11 23:33:27;;;;;;;1.45;0.45;;;21.90;65.30;;;;;;10379328;28;20104;-55
2022/07/11 23:38:27;;;;;;;1.27;0.50;;;21.90;65.20;;;;;;10393775;28;20176;-56
2022/07/11 23:43:28;;;;;;;0.82;0.43;;;21.90;65.20;;;;;;10393288;28;20120;-55
2022/07/11 23:48:29;;;;;;;0.60;0.60;;;21.90;65.20;;;;;;10409460;28;20111;-54
2022/07/11 23:53:29;;;;;;;1.48;0.60;;;21.90;65.00;;;;;;10364096;28;20121;-56
2022/07/11 23:58:30;;;;;;;1.08;0.55;;;21.90;65.00;;;;;;10406641;28;20084;-55
